Time;durP1;ratioP1;P1;durP2;ratioP2;P2;SDS_P1;SDS_P2;PMS_P1;PMS_P2;Temp;Humidity;BMP_temperature;BMP_pressure;BME280_temperature;BME280_humidity;BME280_pressure;Samples;Min_cycle;Max_cycle;Signal;HPM_P1;HPM_P2
2022/06/20 00:00:34;;;;;;;22.85;12.65;;;26.00;99.90;;;;;;5069589;28;20021;-62
2022/06/20 00:03:01;;;;;;;24.67;11.18;;;26.00;99.90;;;;;;5072348;28;20025;-62
2022/06/20 00:05:31;;;;;;;29.33;12.45;;;26.00;99.90;;;;;;5063629;28;20020;-62
2022/06/20 00:07:58;;;;;;;20.40;12.60;;;26.00;99.90;;;;;;5064628;28;20358;-62
2022/06/20 00:10:30;;;;;;;26.58;12.68;;;26.00;99.90;;;;;;5073095;28;20035;-62
2022/06/20 00:12:57;;;;;;;21.92;12.00;;;26.00;99.90;;;;;;5071472;28;20020;-63
2022/06/20 00:15:33;;;;;;;25.35;13.30;;;26.00;99.90;;;;;;5072510;28;20043;-62
2022/06/20 00:18:03;;;;;;;23.95;14.73;;;26.00;99.90;;;;;;5071693;28;20108;-62
2022/06/20 00:20:30;;;;;;;29.65;14.25;;;26.00;99.90;;;;;;5072524;28;20028;-63
2022/06/20 00:22:57;;;;;;;22.50;15.45;;;26.10;99.90;;;;;;5073058;28;20463;-62
2022/06/20 00:25:24;;;;;;;40.03;21.98;;;26.20;99.90;;;;;;5072194;28;20100;-62
2022/06/20 00:27:53;;;;;;;33.83;18.77;;;26.30;99.90;;;;;;5069868;28;20025;-62
2022/06/20 00:30:21;;;;;;;38.60;20.25;;;26.30;99.90;;;;;;5069250;28;20044;-61
2022/06/20 00:32:48;;;;;;;41.72;25.17;;;26.30;99.90;;;;;;5071664;28;20139;-64
2022/06/20 00:35:15;;;;;;;26.35;19.20;;;26.40;99.90;;;;;;5068515;28;20471;-62
2022/06/20 00:37:42;;;;;;;28.73;16.63;;;26.50;99.90;;;;;;5070185;28;20028;-62
2022/06/20 00:40:30;;;;;;;26.33;17.23;;;26.60;99.90;;;;;;5071750;28;20046;-64
2022/06/20 00:42:57;;;;;;;30.70;16.50;;;26.60;99.90;;;;;;5067736;28;20025;-62
2022/06/20 00:45:26;;;;;;;26.88;16.55;;;26.60;99.90;;;;;;5071857;28;20017;-61
2022/06/20 00:47:58;;;;;;;27.05;15.77;;;26.60;99.90;;;;;;5069929;28;20028;-62
2022/06/20 00:50:33;;;;;;;19.02;15.02;;;26.60;99.90;;;;;;5070174;28;20032;-62
2022/06/20 00:53:19;;;;;;;24.05;15.00;;;26.60;99.90;;;;;;5070803;28;20107;-61
2022/06/20 00:55:54;;;;;;;25.48;17.52;;;26.60;99.90;;;;;;5031874;28;20034;-62
2022/06/20 00:58:24;;;;;;;24.17;16.33;;;26.70;99.90;;;;;;5029981;28;20037;-62
2022/06/20 01:00:51;;;;;;;30.52;15.45;;;26.70;99.90;;;;;;5030913;28;20041;-58
2022/06/20 01:03:23;;;;;;;24.42;15.93;;;26.80;99.90;;;;;;5029772;28;20037;-61
2022/06/20 01:06:02;;;;;;;35.20;16.65;;;26.80;99.90;;;;;;5028985;28;20060;-62
2022/06/20 01:08:37;;;;;;;23.30;16.60;;;26.90;99.90;;;;;;5029471;28;20034;-62
2022/06/20 01:11:12;;;;;;;23.75;15.93;;;26.90;99.90;;;;;;5025637;28;20060;-61
2022/06/20 01:13:39;;;;;;;28.23;15.70;;;27.00;99.90;;;;;;5030429;28;20036;-62
2022/06/20 01:16:28;;;;;;;23.13;16.88;;;27.00;99.90;;;;;;5030183;28;20025;-62
2022/06/20 01:18:57;;;;;;;28.33;17.30;;;27.00;99.90;;;;;;4988755;28;20051;-62
2022/06/20 01:21:30;;;;;;;31.63;16.83;;;27.00;99.90;;;;;;4991080;28;20076;-62
2022/06/20 01:24:21;;;;;;;27.17;17.48;;;27.00;99.90;;;;;;4990644;28;20070;-62
2022/06/20 01:27:10;;;;;;;26.30;18.38;;;27.00;99.90;;;;;;4990647;28;20464;-62
2022/06/20 01:29:36;;;;;;;24.83;17.00;;;27.00;99.90;;;;;;4993362;28;20022;-62
2022/06/20 01:32:05;;;;;;;37.20;18.33;;;27.00;99.90;;;;;;4994049;28;20410;-62
2022/06/20 01:34:33;;;;;;;33.92;18.77;;;27.00;99.90;;;;;;4994611;28;20034;-62
2022/06/20 01:39:56;;;;;;;35.85;20.25;;;27.10;99.90;;;;;;4991643;28;20060;-62
2022/06/20 01:42:24;;;;;;;34.53;20.65;;;27.20;99.90;;;;;;4992669;28;20051;-63
2022/06/20 01:45:04;;;;;;;52.17;22.45;;;27.40;99.90;;;;;;4994590;28;20070;-63
2022/06/20 01:47:31;;;;;;;26.20;19.55;;;27.50;99.90;;;;;;4993868;28;20026;-63
2022/06/20 01:50:05;;;;;;;34.42;19.73;;;27.50;99.90;;;;;;4993890;28;20027;-63
2022/06/20 01:52:36;;;;;;;28.95;17.85;;;27.60;99.90;;;;;;5002047;28;20046;-63
2022/06/20 01:55:08;;;;;;;30.87;18.73;;;27.60;99.90;;;;;;5013481;28;20492;-62
2022/06/20 01:57:39;;;;;;;35.30;18.05;;;27.60;99.90;;;;;;5013280;28;20248;-62
2022/06/20 02:00:11;;;;;;;23.75;16.98;;;27.70;99.90;;;;;;5013974;28;20504;-63
2022/06/20 02:02:40;;;;;;;;;;;27.80;99.90;;;;;;5013503;28;20053;-62
2022/06/20 02:05:12;;;;;;;34.70;19.63;;;27.80;99.90;;;;;;5013495;28;19916;-63
2022/06/20 02:07:42;;;;;;;26.92;19.60;;;27.80;99.90;;;;;;5013145;28;20034;-62
2022/06/20 02:10:12;;;;;;;34.03;18.95;;;27.90;99.90;;;;;;5014190;28;20382;-62
2022/06/20 02:12:39;;;;;;;35.78;20.60;;;27.90;99.90;;;;;;5013577;28;20030;-62
2022/06/20 02:15:07;;;;;;;32.35;16.55;;;28.00;99.90;;;;;;5041013;28;20028;-62
2022/06/20 02:17:41;;;;;;;58.08;36.70;;;28.10;99.90;;;;;;5075063;28;20105;-62
2022/06/20 02:20:13;;;;;;;26.67;15.73;;;28.10;99.90;;;;;;5075088;28;20032;-63
2022/06/20 02:22:41;;;;;;;33.63;16.85;;;28.20;99.90;;;;;;5074977;28;20056;-63
2022/06/20 02:25:15;;;;;;;32.10;16.92;;;28.30;99.90;;;;;;5074493;28;20033;-62
2022/06/20 02:27:48;;;;;;;35.50;15.27;;;28.30;99.90;;;;;;5074454;28;20024;-62
2022/06/20 02:30:15;;;;;;;34.13;20.90;;;28.50;99.90;;;;;;5071319;28;20044;-64
2022/06/20 02:32:49;;;;;;;30.98;15.95;;;28.60;99.90;;;;;;5070162;28;20115;-62
2022/06/20 02:35:19;;;;;;;30.27;17.20;;;28.60;99.90;;;;;;5070187;28;20050;-61
2022/06/20 02:37:46;;;;;;;28.05;15.23;;;28.50;99.90;;;;;;5069697;28;20410;-65
2022/06/20 02:40:16;;;;;;;37.13;16.10;;;28.40;99.90;;;;;;5072520;28;20025;-63
2022/06/20 02:42:51;;;;;;;31.38;16.73;;;28.40;99.90;;;;;;5073257;28;20036;-63
2022/06/20 02:45:20;;;;;;;32.33;15.15;;;28.50;99.90;;;;;;5027216;28;20422;-62
2022/06/20 02:47:49;;;;;;;26.70;16.70;;;28.60;99.90;;;;;;5071693;28;20020;-63
2022/06/20 02:50:21;;;;;;;26.13;15.32;;;28.60;99.90;;;;;;5072194;28;20025;-63
2022/06/20 02:52:57;;;;;;;34.38;16.90;;;28.60;99.90;;;;;;5069762;28;20017;-64
2022/06/20 02:55:25;;;;;;;35.05;16.88;;;28.60;99.90;;;;;;5071926;28;20047;-64
2022/06/20 02:57:56;;;;;;;37.30;16.58;;;28.60;99.90;;;;;;5072366;28;20745;-64
2022/06/20 03:00:28;;;;;;;27.20;14.52;;;28.60;99.90;;;;;;5072828;28;20375;-63
2022/06/20 03:03:00;;;;;;;;;;;28.60;99.90;;;;;;5068763;28;20108;-64
2022/06/20 03:05:28;;;;;;;22.40;14.13;;;28.70;99.90;;;;;;5072041;28;19955;-63
2022/06/20 03:07:55;;;;;;;19.52;12.23;;;28.70;99.90;;;;;;5073564;28;20103;-64
2022/06/20 03:10:28;;;;;;;19.38;11.75;;;28.90;99.90;;;;;;5072558;28;20059;-63
2022/06/20 03:12:57;;;;;;;16.17;12.00;;;29.00;99.90;;;;;;5070928;28;20078;-64
2022/06/20 03:15:25;;;;;;;20.65;11.38;;;29.10;99.90;;;;;;5072264;28;20017;-63
2022/06/20 03:17:53;;;;;;;17.55;11.10;;;29.10;99.90;;;;;;5074674;28;20530;-63
2022/06/20 03:20:21;;;;;;;15.88;10.65;;;29.00;99.90;;;;;;5072394;28;20074;-63
2022/06/20 03:22:56;;;;;;;15.05;10.98;;;29.00;99.90;;;;;;5073425;28;20025;-62
2022/06/20 03:25:23;;;;;;;15.25;10.38;;;29.00;99.90;;;;;;5069623;28;20806;-63
2022/06/20 03:27:52;;;;;;;25.00;11.45;;;29.00;99.90;;;;;;5072827;28;20067;-63
2022/06/20 03:30:24;;;;;;;17.33;10.32;;;29.10;99.90;;;;;;5072447;28;20043;-63
2022/06/20 03:32:52;;;;;;;15.88;10.95;;;29.40;99.90;;;;;;5072219;28;20108;-64
2022/06/20 03:35:18;;;;;;;10.85;9.13;;;29.50;99.90;;;;;;5069760;28;20024;-63
2022/06/20 03:37:45;;;;;;;13.43;10.13;;;29.70;99.90;;;;;;5072489;28;20028;-63
2022/06/20 03:40:13;;;;;;;19.77;11.10;;;29.70;99.90;;;;;;5072198;28;20070;-64
2022/06/20 03:42:40;;;;;;;12.98;9.75;;;29.50;99.90;;;;;;5071604;28;20033;-64
2022/06/20 03:45:09;;;;;;;13.70;10.43;;;29.50;99.90;;;;;;5067830;28;20036;-64
2022/06/20 03:47:44;;;;;;;12.85;9.40;;;29.40;99.90;;;;;;5069897;28;20540;-63
2022/06/20 03:50:25;;;;;;;19.15;12.45;;;29.50;99.90;;;;;;5071611;28;20028;-64
2022/06/20 03:53:11;;;;;;;13.88;9.88;;;29.70;99.90;;;;;;5067413;28;20028;-64
2022/06/20 03:56:03;;;;;;;15.70;9.82;;;29.80;99.90;;;;;;5070306;28;20048;-65
2022/06/20 03:58:32;;;;;;;;;;;29.80;99.90;;;;;;5069393;28;20126;-65
2022/06/20 04:01:03;;;;;;;15.27;10.50;;;29.80;99.90;;;;;;5072124;28;19954;-63
2022/06/20 04:03:37;;;;;;;15.45;11.02;;;29.90;99.90;;;;;;5067800;28;20107;-67
2022/06/20 04:06:11;;;;;;;15.10;11.23;;;30.10;99.90;;;;;;5071208;28;20020;-68
2022/06/20 04:11:38;;;;;;;16.25;11.40;;;30.20;99.90;;;;;;5069851;28;20036;-73
2022/06/20 04:14:09;;;;;;;14.07;11.05;;;30.20;99.90;;;;;;5071170;28;20013;-65
2022/06/20 04:16:43;;;;;;;17.35;11.73;;;30.20;99.90;;;;;;5072563;28;20024;-69
2022/06/20 04:19:11;;;;;;;23.63;11.43;;;30.20;99.90;;;;;;5071713;28;20024;-62
2022/06/20 04:21:44;;;;;;;15.32;10.38;;;30.20;99.90;;;;;;5070535;28;20029;-63
2022/06/20 04:24:18;;;;;;;18.50;10.27;;;30.30;99.90;;;;;;5071371;28;20480;-63
2022/06/20 04:26:59;;;;;;;15.93;10.65;;;30.50;99.90;;;;;;5071218;28;20114;-63
2022/06/20 04:29:31;;;;;;;14.47;10.93;;;30.50;99.90;;;;;;5073342;28;20025;-64
2022/06/20 04:32:05;;;;;;;15.45;11.38;;;30.50;99.90;;;;;;5068969;28;20137;-65
2022/06/20 04:34:42;;;;;;;18.20;12.43;;;30.50;99.90;;;;;;5067995;28;20028;-61
2022/06/20 04:37:34;;;;;;;16.85;12.98;;;30.50;99.90;;;;;;5065763;28;20029;-64
2022/06/20 04:40:02;;;;;;;20.87;11.80;;;30.50;99.90;;;;;;5070890;28;20106;-65
2022/06/20 04:42:41;;;;;;;19.75;11.27;;;30.60;99.90;;;;;;5071214;28;20435;-65
2022/06/20 04:45:47;;;;;;;20.70;12.10;;;30.70;99.90;;;;;;5066484;28;20482;-64
2022/06/20 04:48:18;;;;;;;17.20;11.40;;;30.70;99.90;;;;;;5026042;28;20393;-67
2022/06/20 04:50:51;;;;;;;14.95;10.07;;;30.60;99.90;;;;;;5028200;28;20117;-64
2022/06/20 04:53:23;;;;;;;17.05;9.85;;;30.60;99.90;;;;;;5028018;28;20079;-63
2022/06/20 04:55:53;;;;;;;14.15;10.48;;;30.70;99.90;;;;;;5026855;28;20051;-63
2022/06/20 04:58:27;;;;;;;13.98;9.70;;;30.70;99.90;;;;;;5025422;28;20524;-63
2022/06/20 05:00:57;;;;;;;13.93;10.18;;;30.80;99.90;;;;;;5027927;28;20025;-63
2022/06/20 05:03:29;;;;;;;11.75;9.25;;;30.90;99.90;;;;;;5030064;28;20037;-63
2022/06/20 05:05:58;;;;;;;15.43;10.73;;;30.80;99.90;;;;;;5028991;28;20033;-64
2022/06/20 05:08:34;;;;;;;16.02;11.55;;;30.70;99.90;;;;;;5028608;28;20496;-65
2022/06/20 05:11:07;;;;;;;13.65;9.68;;;30.80;99.90;;;;;;5032428;28;20040;-65
2022/06/20 05:13:44;;;;;;;14.90;9.85;;;30.80;99.90;;;;;;5032118;28;20499;-65
2022/06/20 05:16:33;;;;;;;12.30;9.52;;;30.80;99.90;;;;;;5031186;28;20112;-64
2022/06/20 05:19:06;;;;;;;12.98;9.43;;;30.70;99.90;;;;;;5029520;28;20035;-63
2022/06/20 05:21:39;;;;;;;19.08;10.85;;;30.70;99.90;;;;;;5074412;28;21443;-63
2022/06/20 05:24:29;;;;;;;11.32;9.63;;;30.80;99.90;;;;;;5075787;28;20028;-62
2022/06/20 05:26:59;;;;;;;10.55;9.02;;;31.00;99.90;;;;;;5075461;28;21178;-63
2022/06/20 05:29:35;;;;;;;13.80;9.00;;;31.20;99.90;;;;;;5082358;28;20016;-65
2022/06/20 05:32:06;;;;;;;11.48;9.07;;;31.20;99.90;;;;;;5064173;28;20157;-62
2022/06/20 05:34:59;;;;;;;10.65;9.63;;;31.30;99.90;;;;;;5072857;28;20596;-63
2022/06/20 05:37:52;;;;;;;12.88;9.43;;;31.30;99.90;;;;;;5076315;28;20494;-63
2022/06/20 05:40:43;;;;;;;14.68;9.98;;;31.40;99.90;;;;;;5055753;28;20481;-63
2022/06/20 05:43:22;;;;;;;15.68;9.73;;;31.30;99.90;;;;;;5055497;28;20458;-62
2022/06/20 05:45:56;;;;;;;15.15;9.65;;;31.30;99.90;;;;;;5073419;28;20076;-62
2022/06/20 05:48:30;;;;;;;12.07;9.20;;;31.30;99.90;;;;;;5068918;28;20107;-63
2022/06/20 05:51:00;;;;;;;12.02;8.98;;;31.20;99.90;;;;;;5073664;28;20454;-63
2022/06/20 05:53:58;;;;;;;9.95;7.85;;;31.30;99.90;;;;;;5069273;28;20031;-63
2022/06/20 05:56:33;;;;;;;11.85;8.02;;;31.40;99.90;;;;;;5072164;28;20379;-63
2022/06/20 05:59:01;;;;;;;13.57;9.02;;;31.40;99.90;;;;;;5074525;28;20040;-63
2022/06/20 06:01:33;;;;;;;14.63;9.57;;;31.50;99.90;;;;;;5074777;28;20035;-63
2022/06/20 06:04:21;;;;;;;;;;;31.60;99.90;;;;;;5075621;28;20036;-63
2022/06/20 06:06:56;;;;;;;10.98;8.93;;;31.70;99.90;;;;;;4993614;28;19945;-62
2022/06/20 06:09:28;;;;;;;9.27;8.10;;;31.60;99.90;;;;;;4995427;28;20043;-62
2022/06/20 06:12:02;;;;;;;11.15;8.60;;;31.60;99.90;;;;;;4995616;28;20532;-62
2022/06/20 06:14:43;;;;;;;14.57;10.38;;;31.70;99.90;;;;;;4992114;28;20137;-65
2022/06/20 06:17:39;;;;;;;9.73;7.80;;;31.80;99.90;;;;;;4990767;28;20077;-63
2022/06/20 06:20:25;;;;;;;8.95;7.18;;;31.90;99.90;;;;;;4961049;28;20038;-63
2022/06/20 06:22:56;;;;;;;10.13;6.65;;;32.10;97.60;;;;;;4962860;28;20243;-63
2022/06/20 06:25:28;;;;;;;10.23;7.70;;;32.20;98.30;;;;;;4963212;28;20031;-62
2022/06/20 06:27:56;;;;;;;;;;;32.20;96.50;;;;;;4960805;28;20629;-63
2022/06/20 06:30:30;;;;;;;12.15;7.78;;;32.20;95.60;;;;;;4970712;28;19926;-64
2022/06/20 06:33:05;;;;;;;11.57;8.40;;;32.20;95.90;;;;;;4972727;28;20159;-64
2022/06/20 06:35:41;;;;;;;19.85;15.30;;;32.20;97.60;;;;;;4970074;28;20034;-63
2022/06/20 06:38:40;;;;;;;13.43;11.32;;;32.10;97.60;;;;;;4974189;28;20027;-63
2022/06/20 06:41:19;;;;;;;12.38;9.38;;;32.10;97.90;;;;;;4973100;28;20560;-64
2022/06/20 06:43:47;;;;;;;14.32;9.45;;;32.00;97.70;;;;;;4972588;28;20039;-63
2022/06/20 06:46:22;;;;;;;13.82;9.07;;;31.90;98.50;;;;;;4957267;28;20042;-63
2022/06/20 06:48:56;;;;;;;13.25;10.00;;;32.10;98.90;;;;;;4973667;28;20102;-62
2022/06/20 06:51:50;;;;;;;15.23;10.35;;;32.20;99.10;;;;;;5006333;28;20444;-63
2022/06/20 06:54:24;;;;;;;13.50;9.30;;;32.10;98.40;;;;;;5007023;28;20591;-63
2022/06/20 06:57:03;;;;;;;10.85;8.98;;;32.00;98.50;;;;;;4993159;28;20023;-63
2022/06/20 06:59:52;;;;;;;13.73;8.95;;;31.90;98.60;;;;;;4992839;28;20033;-63
2022/06/20 07:02:22;;;;;;;9.75;8.18;;;31.90;98.30;;;;;;5001777;28;20041;-64
2022/06/20 07:05:05;;;;;;;13.60;8.85;;;31.80;97.30;;;;;;5063142;28;20024;-63
2022/06/20 07:07:42;;;;;;;13.15;9.85;;;31.80;97.70;;;;;;5074253;28;20066;-63
2022/06/20 07:10:19;;;;;;;11.38;8.70;;;31.80;98.20;;;;;;5074114;28;20461;-63
2022/06/20 07:12:51;;;;;;;13.52;8.50;;;31.70;97.60;;;;;;5071378;28;20428;-63
2022/06/20 07:15:20;;;;;;;;;;;31.60;97.20;;;;;;5074058;28;20501;-63
2022/06/20 07:17:50;;;;;;;17.90;10.57;;;31.50;97.60;;;;;;5072636;28;20290;-63
2022/06/20 07:20:21;;;;;;;14.15;8.60;;;31.50;98.00;;;;;;5073886;28;20518;-63
2022/06/20 07:22:48;;;;;;;16.40;10.20;;;31.50;98.10;;;;;;5073873;28;20039;-63
2022/06/20 07:25:36;;;;;;;15.52;9.98;;;31.40;99.00;;;;;;5072356;28;20405;-63
2022/06/20 07:28:11;;;;;;;12.93;10.15;;;31.40;99.20;;;;;;5074012;28;20052;-62
2022/06/20 07:30:48;;;;;;;20.38;14.10;;;31.40;99.20;;;;;;5073915;28;20136;-64
2022/06/20 07:33:22;;;;;;;22.13;17.00;;;31.30;99.60;;;;;;5073597;28;20110;-62
2022/06/20 07:35:55;;;;;;;23.20;16.20;;;31.30;99.90;;;;;;5067526;28;20032;-63
2022/06/20 07:38:35;;;;;;;26.15;17.40;;;31.20;99.90;;;;;;5073676;28;20032;-63
2022/06/20 07:41:07;;;;;;;29.08;18.85;;;31.10;99.90;;;;;;5073554;28;20032;-63
2022/06/20 07:43:43;;;;;;;29.40;21.92;;;31.00;99.90;;;;;;5073432;28;20020;-63
2022/06/20 07:46:17;;;;;;;36.42;26.02;;;31.00;99.90;;;;;;5073106;28;20016;-63
2022/06/20 07:48:47;;;;;;;63.65;41.85;;;31.00;99.90;;;;;;5073353;28;20017;-63
2022/06/20 07:51:17;;;;;;;37.55;25.42;;;31.00;99.90;;;;;;5073445;28;20017;-63
2022/06/20 07:53:52;;;;;;;31.08;21.40;;;30.90;99.90;;;;;;5073461;28;20024;-64
2022/06/20 07:56:29;;;;;;;29.90;19.98;;;30.80;99.90;;;;;;5053921;28;20506;-63
2022/06/20 07:59:02;;;;;;;22.20;14.48;;;30.80;99.90;;;;;;5053679;28;20068;-64
2022/06/20 08:01:34;;;;;;;24.70;16.90;;;30.80;99.90;;;;;;5053670;28;20025;-64
2022/06/20 08:04:08;;;;;;;27.58;17.17;;;30.70;99.90;;;;;;5065210;28;20493;-64
2022/06/20 08:06:36;;;;;;;34.17;21.73;;;30.70;99.90;;;;;;5072302;28;20025;-65
2022/06/20 08:09:13;;;;;;;42.22;21.98;;;30.70;99.90;;;;;;5073241;28;20063;-62
2022/06/20 08:11:50;;;;;;;35.10;21.98;;;30.60;99.90;;;;;;5073301;28;20107;-64
2022/06/20 08:14:21;;;;;;;29.77;18.95;;;30.50;99.90;;;;;;5073097;28;20048;-63
2022/06/20 08:16:52;;;;;;;37.95;25.00;;;30.50;99.90;;;;;;5072981;28;20029;-64
2022/06/20 08:19:22;;;;;;;32.10;20.57;;;30.60;99.90;;;;;;5073021;28;20107;-64
2022/06/20 08:21:57;;;;;;;34.85;21.17;;;30.50;99.90;;;;;;5073098;28;20364;-64
2022/06/20 08:24:41;;;;;;;43.80;24.95;;;30.40;99.90;;;;;;5073409;28;20158;-64
2022/06/20 08:27:11;;;;;;;26.88;16.48;;;30.40;99.90;;;;;;5072800;28;20020;-64
2022/06/20 08:29:44;;;;;;;16.25;11.85;;;30.30;99.90;;;;;;5073438;28;20025;-65
2022/06/20 08:32:20;;;;;;;17.95;10.77;;;30.20;99.90;;;;;;5073305;28;20043;-65
2022/06/20 08:34:51;;;;;;;18.42;11.57;;;30.10;99.90;;;;;;5073420;28;20453;-65
2022/06/20 08:37:23;;;;;;;36.00;16.42;;;30.00;99.90;;;;;;5069902;28;20028;-64
2022/06/20 08:40:30;;;;;;;38.50;22.45;;;30.00;99.90;;;;;;5060725;28;20029;-64
2022/06/20 08:42:59;;;;;;;32.72;20.60;;;30.00;99.90;;;;;;4976097;28;20041;-65
2022/06/20 08:45:34;;;;;;;31.33;18.35;;;30.00;99.90;;;;;;4978011;28;20031;-65
2022/06/20 08:48:21;;;;;;;29.58;17.52;;;30.00;99.90;;;;;;4995231;28;20130;-65
2022/06/20 08:51:17;;;;;;;23.20;14.60;;;30.00;99.90;;;;;;4995073;28;20014;-65
2022/06/20 08:54:14;;;;;;;343.75;266.00;;;30.00;99.90;;;;;;4992950;28;20038;-65
2022/06/20 08:56:47;;;;;;;106.82;72.28;;;30.10;99.90;;;;;;4995343;28;20520;-63
2022/06/20 08:59:32;;;;;;;101.13;74.60;;;30.10;99.90;;;;;;4995209;28;20073;-64
2022/06/20 09:02:27;;;;;;;29.13;21.10;;;30.20;99.90;;;;;;4992777;28;20058;-63
2022/06/20 09:05:11;;;;;;;28.42;17.08;;;30.30;99.90;;;;;;4916880;29;20500;-62
2022/06/20 09:07:58;;;;;;;44.75;22.88;;;30.30;99.90;;;;;;4919871;29;20044;-63
2022/06/20 09:10:35;;;;;;;37.17;19.20;;;30.30;99.90;;;;;;4919376;29;20100;-64
2022/06/20 09:13:13;;;;;;;33.13;17.30;;;30.30;99.90;;;;;;4914712;29;20135;-63
2022/06/20 09:15:42;;;;;;;36.38;20.55;;;30.40;99.90;;;;;;4919498;29;20662;-63
2022/06/20 09:18:22;;;;;;;37.95;24.08;;;30.40;99.90;;;;;;4917192;29;20088;-62
2022/06/20 09:21:04;;;;;;;38.25;23.08;;;30.40;99.90;;;;;;4990734;28;20137;-64
2022/06/20 09:24:10;;;;;;;41.70;23.90;;;30.40;99.90;;;;;;4994857;28;20089;-64
2022/06/20 09:26:41;;;;;;;50.40;28.23;;;30.40;99.90;;;;;;4931177;29;20036;-64
2022/06/20 09:29:29;;;;;;;43.13;22.40;;;30.50;99.90;;;;;;4936205;29;20542;-65
2022/06/20 09:32:35;;;;;;;29.05;22.33;;;30.60;99.90;;;;;;4934252;29;20077;-64
2022/06/20 09:35:20;;;;;;;21.58;14.93;;;30.70;99.90;;;;;;4935293;29;20032;-65
2022/06/20 09:38:15;;;;;;;16.00;10.95;;;30.80;99.90;;;;;;4934168;29;20071;-63
2022/06/20 09:41:03;;;;;;;26.65;19.80;;;30.90;99.90;;;;;;4934158;29;20411;-62
2022/06/20 09:43:43;;;;;;;20.55;13.95;;;30.90;99.90;;;;;;4897555;29;20480;-68
2022/06/20 09:46:24;;;;;;;22.27;11.85;;;30.80;99.90;;;;;;4897686;29;20496;-63
2022/06/20 09:49:17;;;;;;;20.05;12.63;;;30.70;99.90;;;;;;4903996;29;20096;-63
2022/06/20 09:51:57;;;;;;;21.95;13.65;;;30.60;99.90;;;;;;4897356;29;20048;-64
2022/06/20 09:54:36;;;;;;;23.02;13.57;;;30.40;99.90;;;;;;4897313;29;20116;-64
2022/06/20 09:57:05;;;;;;;10.70;8.38;;;30.20;99.90;;;;;;4896696;29;20491;-63
2022/06/20 09:59:46;;;;;;;15.18;9.23;;;30.00;99.90;;;;;;4898895;29;20116;-63
2022/06/20 10:02:41;;;;;;;12.68;8.00;;;29.80;99.90;;;;;;4934491;28;20534;-65
2022/06/20 10:05:34;;;;;;;10.63;6.38;;;29.70;99.90;;;;;;4964875;28;20445;-64
2022/06/20 10:08:11;;;;;;;14.43;8.50;;;29.50;99.90;;;;;;4974169;28;20050;-64
2022/06/20 10:11:04;;;;;;;15.10;11.77;;;29.30;99.90;;;;;;4972073;28;20042;-65
2022/06/20 10:14:07;;;;;;;12.75;8.48;;;29.20;99.90;;;;;;4909233;29;20496;-65
2022/06/20 10:16:39;;;;;;;12.20;7.95;;;29.00;99.90;;;;;;4887326;29;20043;-65
2022/06/20 10:19:27;;;;;;;28.17;22.67;;;28.90;99.90;;;;;;4888747;29;20029;-64
2022/06/20 10:22:05;;;;;;;10.45;8.35;;;28.80;99.90;;;;;;4879125;29;20484;-64
2022/06/20 10:24:34;;;;;;;20.38;10.23;;;28.80;99.90;;;;;;4881550;29;20044;-64
2022/06/20 10:27:26;;;;;;;10.80;7.60;;;28.70;99.90;;;;;;4897071;29;20075;-66
2022/06/20 10:30:02;;;;;;;13.45;8.93;;;28.70;99.90;;;;;;4869367;29;20048;-64
2022/06/20 10:32:30;;;;;;;34.13;22.83;;;28.70;99.90;;;;;;4883425;29;20048;-66
2022/06/20 10:35:05;;;;;;;26.58;17.88;;;28.60;99.90;;;;;;4886853;29;20060;-64
2022/06/20 10:37:49;;;;;;;26.60;20.70;;;28.70;99.90;;;;;;4884183;29;20040;-64
2022/06/20 10:40:39;;;;;;;17.50;13.95;;;28.60;99.90;;;;;;4902923;29;20043;-66
2022/06/20 10:43:06;;;;;;;17.88;11.68;;;28.60;99.90;;;;;;4852369;29;20034;-64
2022/06/20 10:45:44;;;;;;;18.63;12.20;;;28.70;99.90;;;;;;4854676;29;20045;-65
2022/06/20 10:48:40;;;;;;;15.80;11.82;;;28.60;99.90;;;;;;4871390;29;20044;-65
2022/06/20 10:51:46;;;;;;;36.00;27.70;;;28.50;99.90;;;;;;4897474;29;20417;-65
2022/06/20 10:54:22;;;;;;;15.75;11.35;;;28.50;99.90;;;;;;4877954;29;20531;-64
2022/06/20 10:57:10;;;;;;;22.67;14.25;;;28.40;99.90;;;;;;4887551;29;20119;-67
2022/06/20 10:59:57;;;;;;;23.15;15.07;;;28.30;99.90;;;;;;4896958;29;20046;-66
2022/06/20 11:02:25;;;;;;;15.70;12.00;;;28.30;99.90;;;;;;4896953;29;20044;-65
2022/06/20 12:15:38;;;;;;;29.05;19.55;;;27.80;99.90;;;;;;5078566;27;20427;-63
2022/06/20 12:18:12;;;;;;;28.58;19.45;;;27.90;99.90;;;;;;5068163;28;20115;-64
2022/06/20 12:23:41;;;;;;;32.40;21.23;;;28.00;99.90;;;;;;5068479;28;20078;-65
2022/06/20 12:26:22;;;;;;;41.50;26.60;;;28.00;99.90;;;;;;5070632;28;20428;-66
2022/06/20 12:28:52;;;;;;;40.67;28.55;;;28.00;99.90;;;;;;5070577;28;20482;-63
2022/06/20 12:31:40;;;;;;;45.47;27.13;;;28.00;99.90;;;;;;5070335;28;20059;-62
2022/06/20 12:34:18;;;;;;;35.90;23.98;;;28.00;99.90;;;;;;5067532;28;20033;-64
2022/06/20 12:36:54;;;;;;;37.45;23.65;;;28.10;99.90;;;;;;5068174;28;20036;-64
2022/06/20 12:39:43;;;;;;;25.38;15.40;;;28.10;99.90;;;;;;5068285;28;20112;-63
2022/06/20 12:42:16;;;;;;;17.63;12.00;;;28.00;99.90;;;;;;5062986;28;20047;-63
2022/06/20 12:45:06;;;;;;;14.18;10.50;;;27.90;99.90;;;;;;5068211;28;20095;-63
2022/06/20 12:47:35;;;;;;;12.45;9.00;;;27.90;99.90;;;;;;5067991;28;20431;-61
2022/06/20 12:50:10;;;;;;;20.38;10.00;;;27.90;99.90;;;;;;5068070;28;20029;-63
2022/06/20 12:52:41;;;;;;;21.75;13.48;;;27.90;99.90;;;;;;5068047;28;20045;-63
2022/06/20 12:55:31;;;;;;;22.25;14.50;;;28.00;99.90;;;;;;5068416;28;20107;-63
2022/06/20 12:58:05;;;;;;;22.10;14.30;;;28.00;99.90;;;;;;5048178;28;20026;-63
2022/06/20 13:00:34;;;;;;;23.40;15.00;;;28.00;99.90;;;;;;5047860;28;20025;-67
2022/06/20 13:03:01;;;;;;;19.50;13.07;;;28.00;99.90;;;;;;5047207;28;20032;-64
2022/06/20 13:05:49;;;;;;;13.57;10.90;;;27.90;99.90;;;;;;5048042;28;20531;-63
2022/06/20 13:08:16;;;;;;;12.88;8.80;;;27.80;99.90;;;;;;4953520;28;20105;-63
2022/06/20 13:10:52;;;;;;;13.57;9.98;;;27.90;99.90;;;;;;4950177;29;20039;-64
2022/06/20 13:13:29;;;;;;;14.93;10.95;;;27.90;99.90;;;;;;4949991;28;20079;-64
2022/06/20 13:16:02;;;;;;;21.25;12.90;;;27.80;99.90;;;;;;4949925;29;20069;-63
2022/06/20 13:19:08;;;;;;;16.73;11.52;;;27.80;99.90;;;;;;4949660;29;20481;-64
2022/06/20 13:21:55;;;;;;;21.77;13.95;;;27.90;99.90;;;;;;4981829;22;20047;-65
2022/06/20 13:24:21;;;;;;;28.77;14.30;;;27.90;99.90;;;;;;5029209;28;20048;-66
2022/06/20 13:27:15;;;;;;;20.95;12.73;;;27.80;99.90;;;;;;5017339;28;20033;-65
2022/06/20 13:29:48;;;;;;;18.83;12.73;;;27.80;99.90;;;;;;5016212;28;20022;-65
2022/06/20 13:32:19;;;;;;;19.80;11.90;;;27.80;99.90;;;;;;5019929;28;20029;-65
2022/06/20 13:34:47;;;;;;;21.25;13.75;;;27.80;99.90;;;;;;5036497;28;20036;-64
2022/06/20 13:37:28;;;;;;;23.00;13.68;;;27.90;99.90;;;;;;5030508;28;20104;-64
2022/06/20 13:40:12;;;;;;;27.88;14.23;;;27.80;99.90;;;;;;5034973;28;20029;-64
2022/06/20 13:42:48;;;;;;;22.02;13.25;;;27.80;99.90;;;;;;5035580;28;20026;-66
2022/06/20 13:45:22;;;;;;;27.60;15.63;;;27.80;99.90;;;;;;5036575;28;20029;-65
2022/06/20 13:47:59;;;;;;;33.00;17.17;;;27.80;99.90;;;;;;5036420;28;20034;-66
2022/06/20 13:50:27;;;;;;;23.27;16.02;;;27.70;99.90;;;;;;5021617;28;20087;-66
2022/06/20 13:53:08;;;;;;;34.83;20.63;;;27.70;99.90;;;;;;5025597;28;20032;-65
2022/06/20 13:55:53;;;;;;;26.98;15.43;;;27.80;99.90;;;;;;5034909;28;20116;-65
2022/06/20 13:58:30;;;;;;;30.40;17.05;;;27.70;99.90;;;;;;5035677;28;20075;-65
2022/06/20 14:01:07;;;;;;;28.95;18.15;;;27.70;99.90;;;;;;5035799;28;20022;-64
2022/06/20 14:03:47;;;;;;;34.90;18.08;;;27.80;99.90;;;;;;5035313;28;20026;-64
2022/06/20 14:06:43;;;;;;;38.90;19.38;;;27.60;99.90;;;;;;5034379;28;20172;-65
2022/06/20 14:09:19;;;;;;;41.45;19.75;;;27.70;99.90;;;;;;5034588;28;20092;-64
2022/06/20 14:11:52;;;;;;;29.58;18.60;;;27.60;99.90;;;;;;5031575;28;20029;-64
2022/06/20 14:14:39;;;;;;;34.53;20.85;;;27.60;99.90;;;;;;5027423;28;20026;-63
2022/06/20 14:17:17;;;;;;;33.33;19.42;;;27.60;99.90;;;;;;5031859;28;20437;-65
2022/06/20 14:20:06;;;;;;;29.17;17.35;;;27.50;99.90;;;;;;5035059;28;20104;-65
2022/06/20 14:22:43;;;;;;;30.80;17.05;;;27.50;99.90;;;;;;5032647;28;20361;-64
2022/06/20 14:25:30;;;;;;;47.13;24.55;;;27.50;99.90;;;;;;5034207;28;20363;-64
2022/06/20 14:27:58;;;;;;;45.53;23.73;;;27.50;99.90;;;;;;5027115;28;20029;-65
2022/06/20 14:30:33;;;;;;;36.20;17.35;;;27.40;99.90;;;;;;5029498;28;20033;-68
2022/06/20 14:33:23;;;;;;;30.58;16.30;;;27.50;99.90;;;;;;5035174;28;20517;-65
2022/06/20 14:36:00;;;;;;;34.38;16.88;;;27.40;99.90;;;;;;5034694;28;20038;-65